sensor_id;sensor_type;location;lat;lon;timestamp;temperature;humidity
69208;SHT31;70114;47.690;8.898;2023-11-21T00:01:10;8.48;77.80
69208;SHT31;70114;47.690;8.898;2023-11-21T00:03:42;8.51;77.91
69208;SHT31;70114;47.690;8.898;2023-11-21T00:06:15;8.45;78.29
69208;SHT31;70114;47.690;8.898;2023-11-21T00:08:42;8.40;78.80
69208;SHT31;70114;47.690;8.898;2023-11-21T00:11:18;8.40;78.86
69208;SHT31;70114;47.690;8.898;2023-11-21T00:13:47;8.36;79.08
69208;SHT31;70114;47.690;8.898;2023-11-21T00:16:18;8.44;78.93
69208;SHT31;70114;47.690;8.898;2023-11-21T00:18:44;8.45;79.08
69208;SHT31;70114;47.690;8.898;2023-11-21T00:21:12;8.48;78.88
69208;SHT31;70114;47.690;8.898;2023-11-21T00:23:38;8.53;78.77
69208;SHT31;70114;47.690;8.898;2023-11-21T00:26:09;8.51;78.77
69208;SHT31;70114;47.690;8.898;2023-11-21T00:28:39;8.51;78.83
69208;SHT31;70114;47.690;8.898;2023-11-21T00:31:11;8.53;78.83
69208;SHT31;70114;47.690;8.898;2023-11-21T00:33:41;8.58;78.80
69208;SHT31;70114;47.690;8.898;2023-11-21T00:36:16;8.54;78.90
69208;SHT31;70114;47.690;8.898;2023-11-21T00:38:42;8.48;78.88
69208;SHT31;70114;47.690;8.898;2023-11-21T00:41:10;8.60;78.86
69208;SHT31;70114;47.690;8.898;2023-11-21T00:43:43;8.50;79.18
69208;SHT31;70114;47.690;8.898;2023-11-21T00:46:17;8.55;79.14
69208;SHT31;70114;47.690;8.898;2023-11-21T00:48:42;8.55;79.24
69208;SHT31;70114;47.690;8.898;2023-11-21T00:51:08;8.55;79.57
69208;SHT31;70114;47.690;8.898;2023-11-21T00:53:34;8.50;80.17
69208;SHT31;70114;47.690;8.898;2023-11-21T00:55:59;8.53;80.32
69208;SHT31;70114;47.690;8.898;2023-11-21T00:58:25;8.48;80.80
69208;SHT31;70114;47.690;8.898;2023-11-21T01:00:50;8.51;80.61
69208;SHT31;70114;47.690;8.898;2023-11-21T01:03:16;8.48;80.95
69208;SHT31;70114;47.690;8.898;2023-11-21T01:05:41;8.45;81.28
69208;SHT31;70114;47.690;8.898;2023-11-21T01:08:06;8.38;81.43
69208;SHT31;70114;47.690;8.898;2023-11-21T01:10:32;8.32;81.80
69208;SHT31;70114;47.690;8.898;2023-11-21T01:12:59;8.27;82.07
69208;SHT31;70114;47.690;8.898;2023-11-21T01:15:25;8.22;82.24
69208;SHT31;70114;47.690;8.898;2023-11-21T01:17:53;8.07;82.67
69208;SHT31;70114;47.690;8.898;2023-11-21T01:20:18;8.14;82.88
69208;SHT31;70114;47.690;8.898;2023-11-21T01:22:44;8.07;82.93
69208;SHT31;70114;47.690;8.898;2023-11-21T01:25:10;8.06;82.99
69208;SHT31;70114;47.690;8.898;2023-11-21T01:27:36;7.97;83.01
69208;SHT31;70114;47.690;8.898;2023-11-21T01:30:03;7.95;82.65
69208;SHT31;70114;47.690;8.898;2023-11-21T01:32:28;7.95;82.92
69208;SHT31;70114;47.690;8.898;2023-11-21T01:34:56;7.96;83.12
69208;SHT31;70114;47.690;8.898;2023-11-21T01:37:21;7.99;82.75
69208;SHT31;70114;47.690;8.898;2023-11-21T01:39:49;7.99;82.81
69208;SHT31;70114;47.690;8.898;2023-11-21T01:42:14;7.99;82.60
69208;SHT31;70114;47.690;8.898;2023-11-21T01:44:40;7.93;82.48
69208;SHT31;70114;47.690;8.898;2023-11-21T01:47:06;7.93;82.46
69208;SHT31;70114;47.690;8.898;2023-11-21T01:49:32;8.02;82.47
69208;SHT31;70114;47.690;8.898;2023-11-21T01:51:59;8.03;81.95
69208;SHT31;70114;47.690;8.898;2023-11-21T01:54:25;8.00;82.40
69208;SHT31;70114;47.690;8.898;2023-11-21T01:56:51;7.96;82.30
69208;SHT31;70114;47.690;8.898;2023-11-21T01:59:20;7.99;82.49
69208;SHT31;70114;47.690;8.898;2023-11-21T02:01:52;7.97;82.66
69208;SHT31;70114;47.690;8.898;2023-11-21T02:04:17;8.05;82.65
69208;SHT31;70114;47.690;8.898;2023-11-21T02:06:43;7.99;82.13
69208;SHT31;70114;47.690;8.898;2023-11-21T02:09:09;8.02;82.54
69208;SHT31;70114;47.690;8.898;2023-11-21T02:11:35;7.99;82.60
69208;SHT31;70114;47.690;8.898;2023-11-21T02:14:00;8.00;82.59
69208;SHT31;70114;47.690;8.898;2023-11-21T02:16:26;8.00;82.62
69208;SHT31;70114;47.690;8.898;2023-11-21T02:18:52;7.96;82.74
69208;SHT31;70114;47.690;8.898;2023-11-21T02:21:18;7.99;82.82
69208;SHT31;70114;47.690;8.898;2023-11-21T02:23:46;8.03;83.24
69208;SHT31;70114;47.690;8.898;2023-11-21T02:26:12;8.00;83.26
69208;SHT31;70114;47.690;8.898;2023-11-21T02:28:39;8.05;83.42
69208;SHT31;70114;47.690;8.898;2023-11-21T02:31:05;7.95;83.99
69208;SHT31;70114;47.690;8.898;2023-11-21T02:33:31;7.93;84.41
69208;SHT31;70114;47.690;8.898;2023-11-21T02:36:02;7.90;84.67
69208;SHT31;70114;47.690;8.898;2023-11-21T02:38:28;7.83;84.96
69208;SHT31;70114;47.690;8.898;2023-11-21T02:40:54;7.79;85.49
69208;SHT31;70114;47.690;8.898;2023-11-21T02:43:19;7.86;85.39
69208;SHT31;70114;47.690;8.898;2023-11-21T02:45:45;7.72;85.93
69208;SHT31;70114;47.690;8.898;2023-11-21T02:48:10;7.75;86.10
69208;SHT31;70114;47.690;8.898;2023-11-21T02:50:36;7.71;86.28
69208;SHT31;70114;47.690;8.898;2023-11-21T02:53:02;7.75;86.24
69208;SHT31;70114;47.690;8.898;2023-11-21T02:55:28;7.75;86.40
69208;SHT31;70114;47.690;8.898;2023-11-21T02:57:54;7.68;86.35
69208;SHT31;70114;47.690;8.898;2023-11-21T03:00:21;7.68;86.32
69208;SHT31;70114;47.690;8.898;2023-11-21T03:02:49;7.69;86.45
69208;SHT31;70114;47.690;8.898;2023-11-21T03:05:14;7.65;86.45
69208;SHT31;70114;47.690;8.898;2023-11-21T03:07:40;7.65;86.52
69208;SHT31;70114;47.690;8.898;2023-11-21T03:10:07;7.62;86.33
69208;SHT31;70114;47.690;8.898;2023-11-21T03:12:34;7.58;86.47
69208;SHT31;70114;47.690;8.898;2023-11-21T03:14:59;7.54;86.80
69208;SHT31;70114;47.690;8.898;2023-11-21T03:17:27;7.52;86.73
69208;SHT31;70114;47.690;8.898;2023-11-21T03:19:52;7.54;86.86
69208;SHT31;70114;47.690;8.898;2023-11-21T03:22:17;7.43;86.86
69208;SHT31;70114;47.690;8.898;2023-11-21T03:24:43;7.43;86.88
69208;SHT31;70114;47.690;8.898;2023-11-21T03:27:08;7.46;86.97
69208;SHT31;70114;47.690;8.898;2023-11-21T03:29:33;7.41;86.74
69208;SHT31;70114;47.690;8.898;2023-11-21T03:31:59;7.37;86.57
69208;SHT31;70114;47.690;8.898;2023-11-21T03:34:26;7.31;86.79
69208;SHT31;70114;47.690;8.898;2023-11-21T03:36:52;7.28;86.90
69208;SHT31;70114;47.690;8.898;2023-11-21T03:39:19;7.31;87.07
69208;SHT31;70114;47.690;8.898;2023-11-21T03:41:45;7.34;87.02
69208;SHT31;70114;47.690;8.898;2023-11-21T03:44:11;7.37;87.06
69208;SHT31;70114;47.690;8.898;2023-11-21T03:46:36;7.30;86.81
69208;SHT31;70114;47.690;8.898;2023-11-21T03:49:01;7.24;86.85
69208;SHT31;70114;47.690;8.898;2023-11-21T03:51:27;7.19;86.27
69208;SHT31;70114;47.690;8.898;2023-11-21T03:53:52;7.20;86.18
69208;SHT31;70114;47.690;8.898;2023-11-21T03:56:18;7.17;85.53
69208;SHT31;70114;47.690;8.898;2023-11-21T03:58:43;7.27;85.39
69208;SHT31;70114;47.690;8.898;2023-11-21T04:01:08;7.26;85.51
69208;SHT31;70114;47.690;8.898;2023-11-21T04:03:34;7.30;85.41
69208;SHT31;70114;47.690;8.898;2023-11-21T04:05:59;7.32;84.75
69208;SHT31;70114;47.690;8.898;2023-11-21T04:08:26;7.32;84.74
69208;SHT31;70114;47.690;8.898;2023-11-21T04:10:51;7.28;84.69
69208;SHT31;70114;47.690;8.898;2023-11-21T04:13:18;7.26;84.67
69208;SHT31;70114;47.690;8.898;2023-11-21T04:15:44;7.32;84.36
69208;SHT31;70114;47.690;8.898;2023-11-21T04:18:09;7.27;84.89
69208;SHT31;70114;47.690;8.898;2023-11-21T04:20:35;7.31;84.64
69208;SHT31;70114;47.690;8.898;2023-11-21T04:23:00;7.34;84.49
69208;SHT31;70114;47.690;8.898;2023-11-21T04:25:26;7.40;84.86
69208;SHT31;70114;47.690;8.898;2023-11-21T04:27:52;7.47;84.94
69208;SHT31;70114;47.690;8.898;2023-11-21T04:30:18;7.41;85.18
69208;SHT31;70114;47.690;8.898;2023-11-21T04:32:43;7.47;85.14
69208;SHT31;70114;47.690;8.898;2023-11-21T04:35:09;7.46;85.15
69208;SHT31;70114;47.690;8.898;2023-11-21T04:37:34;7.37;85.13
69208;SHT31;70114;47.690;8.898;2023-11-21T04:40:00;7.32;85.45
69208;SHT31;70114;47.690;8.898;2023-11-21T04:42:25;7.35;85.33
69208;SHT31;70114;47.690;8.898;2023-11-21T04:44:51;7.40;85.44
69208;SHT31;70114;47.690;8.898;2023-11-21T04:47:18;7.41;85.22
69208;SHT31;70114;47.690;8.898;2023-11-21T04:49:45;7.37;85.26
69208;SHT31;70114;47.690;8.898;2023-11-21T04:52:12;7.28;85.77
69208;SHT31;70114;47.690;8.898;2023-11-21T04:54:37;7.27;86.00
69208;SHT31;70114;47.690;8.898;2023-11-21T04:57:03;7.31;86.13
69208;SHT31;70114;47.690;8.898;2023-11-21T04:59:30;7.28;86.11
69208;SHT31;70114;47.690;8.898;2023-11-21T05:01:55;7.27;86.34
69208;SHT31;70114;47.690;8.898;2023-11-21T05:04:20;7.30;86.35
69208;SHT31;70114;47.690;8.898;2023-11-21T05:06:49;7.20;86.79
69208;SHT31;70114;47.690;8.898;2023-11-21T05:09:14;7.26;86.91
69208;SHT31;70114;47.690;8.898;2023-11-21T05:11:41;7.32;86.60
69208;SHT31;70114;47.690;8.898;2023-11-21T05:14:06;7.26;87.13
69208;SHT31;70114;47.690;8.898;2023-11-21T05:16:32;7.27;87.10
69208;SHT31;70114;47.690;8.898;2023-11-21T05:18:58;7.23;87.38
69208;SHT31;70114;47.690;8.898;2023-11-21T05:21:26;7.19;87.50
69208;SHT31;70114;47.690;8.898;2023-11-21T05:23:52;7.27;87.35
69208;SHT31;70114;47.690;8.898;2023-11-21T05:26:17;7.30;87.30
69208;SHT31;70114;47.690;8.898;2023-11-21T05:28:43;7.23;87.54
69208;SHT31;70114;47.690;8.898;2023-11-21T05:31:08;7.10;87.90
69208;SHT31;70114;47.690;8.898;2023-11-21T05:33:36;7.23;87.61
69208;SHT31;70114;47.690;8.898;2023-11-21T05:36:02;7.19;87.92
69208;SHT31;70114;47.690;8.898;2023-11-21T05:38:28;7.09;88.45
69208;SHT31;70114;47.690;8.898;2023-11-21T05:40:53;7.30;88.01
69208;SHT31;70114;47.690;8.898;2023-11-21T05:43:19;7.20;88.40
69208;SHT31;70114;47.690;8.898;2023-11-21T05:45:45;7.21;88.27
69208;SHT31;70114;47.690;8.898;2023-11-21T05:48:10;7.14;88.65
69208;SHT31;70114;47.690;8.898;2023-11-21T05:50:35;7.14;88.78
69208;SHT31;70114;47.690;8.898;2023-11-21T05:53:03;7.23;88.58
69208;SHT31;70114;47.690;8.898;2023-11-21T05:55:29;7.19;88.76
69208;SHT31;70114;47.690;8.898;2023-11-21T05:57:54;7.16;89.08
69208;SHT31;70114;47.690;8.898;2023-11-21T06:00:20;7.20;88.58
69208;SHT31;70114;47.690;8.898;2023-11-21T06:02:47;7.21;88.83
69208;SHT31;70114;47.690;8.898;2023-11-21T06:05:15;7.26;88.67
69208;SHT31;70114;47.690;8.898;2023-11-21T06:07:42;7.26;88.96
69208;SHT31;70114;47.690;8.898;2023-11-21T06:10:08;7.26;88.76
69208;SHT31;70114;47.690;8.898;2023-11-21T06:12:36;7.23;88.96
69208;SHT31;70114;47.690;8.898;2023-11-21T06:15:03;7.21;88.96
69208;SHT31;70114;47.690;8.898;2023-11-21T06:17:33;7.19;88.94
69208;SHT31;70114;47.690;8.898;2023-11-21T06:20:02;7.24;88.86
69208;SHT31;70114;47.690;8.898;2023-11-21T06:22:29;7.23;88.83
69208;SHT31;70114;47.690;8.898;2023-11-21T06:24:55;7.26;89.07
69208;SHT31;70114;47.690;8.898;2023-11-21T06:27:21;7.20;88.74
69208;SHT31;70114;47.690;8.898;2023-11-21T06:29:46;7.26;88.53
69208;SHT31;70114;47.690;8.898;2023-11-21T06:32:12;7.30;88.53
69208;SHT31;70114;47.690;8.898;2023-11-21T06:34:38;7.35;88.35
69208;SHT31;70114;47.690;8.898;2023-11-21T06:37:03;7.24;88.50
69208;SHT31;70114;47.690;8.898;2023-11-21T06:39:29;7.32;88.40
69208;SHT31;70114;47.690;8.898;2023-11-21T06:41:54;7.31;88.44
69208;SHT31;70114;47.690;8.898;2023-11-21T06:44:19;7.30;88.22
69208;SHT31;70114;47.690;8.898;2023-11-21T06:46:45;7.30;88.46
69208;SHT31;70114;47.690;8.898;2023-11-21T06:49:10;7.40;88.21
69208;SHT31;70114;47.690;8.898;2023-11-21T06:51:36;7.43;87.97
69208;SHT31;70114;47.690;8.898;2023-11-21T06:54:05;7.41;88.15
69208;SHT31;70114;47.690;8.898;2023-11-21T06:56:30;7.37;88.31
69208;SHT31;70114;47.690;8.898;2023-11-21T06:58:56;7.27;88.11
69208;SHT31;70114;47.690;8.898;2023-11-21T07:01:21;7.37;88.16
69208;SHT31;70114;47.690;8.898;2023-11-21T07:03:46;7.31;88.26
69208;SHT31;70114;47.690;8.898;2023-11-21T07:06:12;7.37;88.35
69208;SHT31;70114;47.690;8.898;2023-11-21T07:08:37;7.37;88.08
69208;SHT31;70114;47.690;8.898;2023-11-21T07:11:04;7.46;87.87
69208;SHT31;70114;47.690;8.898;2023-11-21T07:13:29;7.40;88.44
69208;SHT31;70114;47.690;8.898;2023-11-21T07:15:55;7.44;88.10
69208;SHT31;70114;47.690;8.898;2023-11-21T07:18:21;7.46;88.14
69208;SHT31;70114;47.690;8.898;2023-11-21T07:20:46;7.55;87.67
69208;SHT31;70114;47.690;8.898;2023-11-21T07:23:11;7.55;87.64
69208;SHT31;70114;47.690;8.898;2023-11-21T07:25:37;7.54;87.39
69208;SHT31;70114;47.690;8.898;2023-11-21T07:28:04;7.61;87.37
69208;SHT31;70114;47.690;8.898;2023-11-21T07:30:30;7.50;88.06
69208;SHT31;70114;47.690;8.898;2023-11-21T07:32:56;7.54;87.53
69208;SHT31;70114;47.690;8.898;2023-11-21T07:35:21;7.61;87.50
69208;SHT31;70114;47.690;8.898;2023-11-21T07:37:46;7.52;87.56
69208;SHT31;70114;47.690;8.898;2023-11-21T07:40:14;7.57;87.58
69208;SHT31;70114;47.690;8.898;2023-11-21T07:42:39;7.62;87.44
69208;SHT31;70114;47.690;8.898;2023-11-21T07:45:05;7.67;87.36
69208;SHT31;70114;47.690;8.898;2023-11-21T07:47:32;7.71;87.08
69208;SHT31;70114;47.690;8.898;2023-11-21T07:49:59;7.75;86.97
69208;SHT31;70114;47.690;8.898;2023-11-21T07:52:25;7.77;87.13
69208;SHT31;70114;47.690;8.898;2023-11-21T07:54:50;7.82;87.03
69208;SHT31;70114;47.690;8.898;2023-11-21T07:57:16;7.83;86.99
69208;SHT31;70114;47.690;8.898;2023-11-21T07:59:41;7.75;87.40
69208;SHT31;70114;47.690;8.898;2023-11-21T08:02:07;7.72;87.35
69208;SHT31;70114;47.690;8.898;2023-11-21T08:04:33;7.77;87.59
69208;SHT31;70114;47.690;8.898;2023-11-21T08:07:00;7.71;87.75
69208;SHT31;70114;47.690;8.898;2023-11-21T08:09:26;7.74;87.72
69208;SHT31;70114;47.690;8.898;2023-11-21T08:11:52;7.81;87.72
69208;SHT31;70114;47.690;8.898;2023-11-21T08:14:18;7.83;87.68
69208;SHT31;70114;47.690;8.898;2023-11-21T08:16:43;7.86;87.51
69208;SHT31;70114;47.690;8.898;2023-11-21T08:19:10;7.93;87.68
69208;SHT31;70114;47.690;8.898;2023-11-21T08:21:36;7.92;87.60
69208;SHT31;70114;47.690;8.898;2023-11-21T08:24:05;7.95;87.65
69208;SHT31;70114;47.690;8.898;2023-11-21T08:26:30;7.97;87.64
69208;SHT31;70114;47.690;8.898;2023-11-21T08:28:56;7.96;87.82
69208;SHT31;70114;47.690;8.898;2023-11-21T08:31:28;7.96;87.92
69208;SHT31;70114;47.690;8.898;2023-11-21T08:33:54;7.93;88.28
69208;SHT31;70114;47.690;8.898;2023-11-21T08:36:21;7.96;88.04
69208;SHT31;70114;47.690;8.898;2023-11-21T08:38:49;7.86;88.16
69208;SHT31;70114;47.690;8.898;2023-11-21T08:41:17;7.99;88.05
69208;SHT31;70114;47.690;8.898;2023-11-21T08:43:47;7.93;88.15
69208;SHT31;70114;47.690;8.898;2023-11-21T08:46:16;7.96;88.00
69208;SHT31;70114;47.690;8.898;2023-11-21T08:48:43;8.06;88.31
69208;SHT31;70114;47.690;8.898;2023-11-21T08:51:10;7.99;87.81
69208;SHT31;70114;47.690;8.898;2023-11-21T08:53:36;7.96;87.77
69208;SHT31;70114;47.690;8.898;2023-11-21T08:56:03;8.05;88.19
69208;SHT31;70114;47.690;8.898;2023-11-21T08:58:30;8.10;88.01
69208;SHT31;70114;47.690;8.898;2023-11-21T09:00:55;8.10;87.83
69208;SHT31;70114;47.690;8.898;2023-11-21T09:03:21;8.14;87.65
69208;SHT31;70114;47.690;8.898;2023-11-21T09:05:46;8.12;88.25
69208;SHT31;70114;47.690;8.898;2023-11-21T09:08:12;8.16;87.98
69208;SHT31;70114;47.690;8.898;2023-11-21T09:10:37;8.16;87.66
69208;SHT31;70114;47.690;8.898;2023-11-21T09:13:04;8.10;87.94
69208;SHT31;70114;47.690;8.898;2023-11-21T09:15:30;8.16;88.02
69208;SHT31;70114;47.690;8.898;2023-11-21T09:17:55;8.22;88.05
69208;SHT31;70114;47.690;8.898;2023-11-21T09:20:21;8.23;87.94
69208;SHT31;70114;47.690;8.898;2023-11-21T09:22:48;8.19;87.43
69208;SHT31;70114;47.690;8.898;2023-11-21T09:25:14;8.22;87.88
69208;SHT31;70114;47.690;8.898;2023-11-21T09:27:39;8.13;87.89
69208;SHT31;70114;47.690;8.898;2023-11-21T09:30:06;8.17;87.81
69208;SHT31;70114;47.690;8.898;2023-11-21T09:32:35;8.07;88.44
69208;SHT31;70114;47.690;8.898;2023-11-21T09:35:02;8.17;88.53
69208;SHT31;70114;47.690;8.898;2023-11-21T09:37:28;8.13;88.63
69208;SHT31;70114;47.690;8.898;2023-11-21T09:39:53;8.14;88.67
69208;SHT31;70114;47.690;8.898;2023-11-21T09:42:25;8.27;88.21
69208;SHT31;70114;47.690;8.898;2023-11-21T09:45:29;8.27;88.26
69208;SHT31;70114;47.690;8.898;2023-11-21T09:47:59;8.36;88.41
69208;SHT31;70114;47.690;8.898;2023-11-21T09:50:24;8.40;88.01
69208;SHT31;70114;47.690;8.898;2023-11-21T09:52:58;8.43;87.59
69208;SHT31;70114;47.690;8.898;2023-11-21T09:55:27;8.47;87.19
69208;SHT31;70114;47.690;8.898;2023-11-21T09:57:56;8.37;86.95
69208;SHT31;70114;47.690;8.898;2023-11-21T10:00:22;8.50;87.91
69208;SHT31;70114;47.690;8.898;2023-11-21T10:02:52;8.57;87.35
69208;SHT31;70114;47.690;8.898;2023-11-21T10:05:18;8.50;86.93
69208;SHT31;70114;47.690;8.898;2023-11-21T10:07:49;8.58;87.09
69208;SHT31;70114;47.690;8.898;2023-11-21T10:10:18;8.63;86.36
69208;SHT31;70114;47.690;8.898;2023-11-21T10:12:46;8.68;86.60
69208;SHT31;70114;47.690;8.898;2023-11-21T10:15:14;8.61;87.23
69208;SHT31;70114;47.690;8.898;2023-11-21T10:17:42;8.44;86.66
69208;SHT31;70114;47.690;8.898;2023-11-21T10:20:14;8.54;86.91
69208;SHT31;70114;47.690;8.898;2023-11-21T10:22:43;8.48;87.06
69208;SHT31;70114;47.690;8.898;2023-11-21T10:25:14;8.57;87.74
69208;SHT31;70114;47.690;8.898;2023-11-21T10:27:48;8.67;87.79
69208;SHT31;70114;47.690;8.898;2023-11-21T10:30:17;8.74;87.44
69208;SHT31;70114;47.690;8.898;2023-11-21T10:32:43;8.68;86.76
69208;SHT31;70114;47.690;8.898;2023-11-21T10:35:09;8.55;87.15
69208;SHT31;70114;47.690;8.898;2023-11-21T10:37:39;8.57;86.94
69208;SHT31;70114;47.690;8.898;2023-11-21T10:40:09;8.58;86.88
69208;SHT31;70114;47.690;8.898;2023-11-21T10:42:39;8.55;86.93
69208;SHT31;70114;47.690;8.898;2023-11-21T10:45:06;8.61;87.24
69208;SHT31;70114;47.690;8.898;2023-11-21T10:47:41;8.75;87.06
69208;SHT31;70114;47.690;8.898;2023-11-21T10:50:07;8.79;86.90
69208;SHT31;70114;47.690;8.898;2023-11-21T10:52:42;8.82;87.07
69208;SHT31;70114;47.690;8.898;2023-11-21T10:55:19;8.79;86.69
69208;SHT31;70114;47.690;8.898;2023-11-21T10:57:52;8.76;84.53
69208;SHT31;70114;47.690;8.898;2023-11-21T11:00:18;8.69;86.93
69208;SHT31;70114;47.690;8.898;2023-11-21T11:02:53;8.69;87.28
69208;SHT31;70114;47.690;8.898;2023-11-21T11:05:23;8.57;87.63
69208;SHT31;70114;47.690;8.898;2023-11-21T11:07:55;8.75;87.40
69208;SHT31;70114;47.690;8.898;2023-11-21T11:10:25;8.72;86.63
69208;SHT31;70114;47.690;8.898;2023-11-21T11:12:53;8.68;86.48
69208;SHT31;70114;47.690;8.898;2023-11-21T11:15:19;8.60;86.35
69208;SHT31;70114;47.690;8.898;2023-11-21T11:17:46;8.63;86.59
69208;SHT31;70114;47.690;8.898;2023-11-21T11:20:13;8.68;86.45
69208;SHT31;70114;47.690;8.898;2023-11-21T11:22:56;8.69;86.22
69208;SHT31;70114;47.690;8.898;2023-11-21T11:25:38;8.76;86.28
69208;SHT31;70114;47.690;8.898;2023-11-21T11:28:07;8.82;85.75
69208;SHT31;70114;47.690;8.898;2023-11-21T11:33:48;9.12;85.90
69208;SHT31;70114;47.690;8.898;2023-11-21T11:36:32;9.19;86.04
69208;SHT31;70114;47.690;8.898;2023-11-21T11:38:59;9.19;86.69
69208;SHT31;70114;47.690;8.898;2023-11-21T11:41:30;9.27;85.84
69208;SHT31;70114;47.690;8.898;2023-11-21T11:43:58;9.36;85.59
69208;SHT31;70114;47.690;8.898;2023-11-21T11:46:41;9.26;84.24
69208;SHT31;70114;47.690;8.898;2023-11-21T11:49:07;9.34;82.68
69208;SHT31;70114;47.690;8.898;2023-11-21T11:51:33;9.39;84.07
69208;SHT31;70114;47.690;8.898;2023-11-21T11:54:01;9.34;83.81
69208;SHT31;70114;47.690;8.898;2023-11-21T11:56:34;9.26;83.75
69208;SHT31;70114;47.690;8.898;2023-11-21T11:59:04;9.26;84.13
69208;SHT31;70114;47.690;8.898;2023-11-21T12:01:32;9.36;84.38
69208;SHT31;70114;47.690;8.898;2023-11-21T12:06:52;9.41;84.25
69208;SHT31;70114;47.690;8.898;2023-11-21T12:09:22;9.40;84.33
69208;SHT31;70114;47.690;8.898;2023-11-21T12:11:49;9.43;85.02
69208;SHT31;70114;47.690;8.898;2023-11-21T12:14:15;9.33;84.42
69208;SHT31;70114;47.690;8.898;2023-11-21T12:16:45;9.40;84.81
69208;SHT31;70114;47.690;8.898;2023-11-21T12:22:04;9.41;84.42
69208;SHT31;70114;47.690;8.898;2023-11-21T12:24:30;9.39;84.64
69208;SHT31;70114;47.690;8.898;2023-11-21T12:26:55;9.29;84.08
69208;SHT31;70114;47.690;8.898;2023-11-21T12:29:21;9.36;84.54
69208;SHT31;70114;47.690;8.898;2023-11-21T12:31:48;9.41;84.57
69208;SHT31;70114;47.690;8.898;2023-11-21T12:34:20;9.46;84.60
69208;SHT31;70114;47.690;8.898;2023-11-21T12:36:45;9.46;85.29
69208;SHT31;70114;47.690;8.898;2023-11-21T12:39:11;9.50;84.30
69208;SHT31;70114;47.690;8.898;2023-11-21T12:41:36;9.44;84.50
69208;SHT31;70114;47.690;8.898;2023-11-21T12:44:01;9.39;84.97
69208;SHT31;70114;47.690;8.898;2023-11-21T12:46:27;9.41;85.00
69208;SHT31;70114;47.690;8.898;2023-11-21T12:48:54;9.41;85.07
69208;SHT31;70114;47.690;8.898;2023-11-21T12:51:21;9.44;85.55
69208;SHT31;70114;47.690;8.898;2023-11-21T12:53:47;9.40;85.56
69208;SHT31;70114;47.690;8.898;2023-11-21T12:56:13;9.29;85.53
69208;SHT31;70114;47.690;8.898;2023-11-21T12:58:44;9.32;85.86
69208;SHT31;70114;47.690;8.898;2023-11-21T13:01:13;9.32;85.55
69208;SHT31;70114;47.690;8.898;2023-11-21T13:03:43;9.24;83.94
69208;SHT31;70114;47.690;8.898;2023-11-21T13:06:10;9.34;82.43
69208;SHT31;70114;47.690;8.898;2023-11-21T13:08:37;9.33;81.81
69208;SHT31;70114;47.690;8.898;2023-11-21T13:11:04;9.19;83.21
69208;SHT31;70114;47.690;8.898;2023-11-21T13:13:31;9.30;83.38
69208;SHT31;70114;47.690;8.898;2023-11-21T13:18:27;9.34;82.79
69208;SHT31;70114;47.690;8.898;2023-11-21T13:20:53;9.34;83.26
69208;SHT31;70114;47.690;8.898;2023-11-21T13:23:20;9.30;83.18
69208;SHT31;70114;47.690;8.898;2023-11-21T13:25:45;9.26;83.45
69208;SHT31;70114;47.690;8.898;2023-11-21T13:28:12;9.32;83.39
69208;SHT31;70114;47.690;8.898;2023-11-21T13:30:38;9.26;82.97
69208;SHT31;70114;47.690;8.898;2023-11-21T13:33:06;9.30;84.10
69208;SHT31;70114;47.690;8.898;2023-11-21T13:35:33;9.26;83.91
69208;SHT31;70114;47.690;8.898;2023-11-21T13:38:15;9.32;84.32
69208;SHT31;70114;47.690;8.898;2023-11-21T13:40:55;9.34;84.10
69208;SHT31;70114;47.690;8.898;2023-11-21T13:43:23;9.33;84.50
69208;SHT31;70114;47.690;8.898;2023-11-21T13:45:51;9.43;83.44
69208;SHT31;70114;47.690;8.898;2023-11-21T13:48:25;9.27;85.13
69208;SHT31;70114;47.690;8.898;2023-11-21T13:50:56;9.41;83.36
69208;SHT31;70114;47.690;8.898;2023-11-21T13:53:38;9.47;84.50
69208;SHT31;70114;47.690;8.898;2023-11-21T13:56:07;9.54;83.79
69208;SHT31;70114;47.690;8.898;2023-11-21T13:58:34;9.58;83.99
69208;SHT31;70114;47.690;8.898;2023-11-21T14:01:18;9.61;83.34
69208;SHT31;70114;47.690;8.898;2023-11-21T14:04:00;9.65;83.63
69208;SHT31;70114;47.690;8.898;2023-11-21T14:06:48;9.68;83.17
69208;SHT31;70114;47.690;8.898;2023-11-21T14:09:19;9.71;83.38
69208;SHT31;70114;47.690;8.898;2023-11-21T14:11:54;9.67;83.24
69208;SHT31;70114;47.690;8.898;2023-11-21T14:14:22;9.78;83.37
69208;SHT31;70114;47.690;8.898;2023-11-21T14:16:50;9.77;83.50
69208;SHT31;70114;47.690;8.898;2023-11-21T14:19:18;9.81;83.45
69208;SHT31;70114;47.690;8.898;2023-11-21T14:21:44;9.79;83.67
69208;SHT31;70114;47.690;8.898;2023-11-21T14:24:13;9.81;83.84
69208;SHT31;70114;47.690;8.898;2023-11-21T14:26:42;9.81;83.70
69208;SHT31;70114;47.690;8.898;2023-11-21T14:29:09;9.74;84.20
69208;SHT31;70114;47.690;8.898;2023-11-21T14:31:37;9.78;84.45
69208;SHT31;70114;47.690;8.898;2023-11-21T14:34:03;9.78;84.07
69208;SHT31;70114;47.690;8.898;2023-11-21T14:36:29;9.81;84.03
69208;SHT31;70114;47.690;8.898;2023-11-21T14:38:55;9.85;83.89
69208;SHT31;70114;47.690;8.898;2023-11-21T14:41:20;9.81;83.53
69208;SHT31;70114;47.690;8.898;2023-11-21T14:43:45;9.81;83.61
69208;SHT31;70114;47.690;8.898;2023-11-21T14:46:14;9.79;83.65
69208;SHT31;70114;47.690;8.898;2023-11-21T14:48:42;9.77;83.45
69208;SHT31;70114;47.690;8.898;2023-11-21T14:51:11;9.77;83.87
69208;SHT31;70114;47.690;8.898;2023-11-21T14:53:56;9.67;83.78
69208;SHT31;70114;47.690;8.898;2023-11-21T14:56:26;9.64;84.05
69208;SHT31;70114;47.690;8.898;2023-11-21T14:58:54;9.60;84.38
69208;SHT31;70114;47.690;8.898;2023-11-21T15:01:23;9.60;84.27
69208;SHT31;70114;47.690;8.898;2023-11-21T15:04:07;9.48;85.12
69208;SHT31;70114;47.690;8.898;2023-11-21T15:06:32;9.55;85.10
69208;SHT31;70114;47.690;8.898;2023-11-21T15:08:58;9.51;85.40
69208;SHT31;70114;47.690;8.898;2023-11-21T15:11:29;9.50;85.41
69208;SHT31;70114;47.690;8.898;2023-11-21T15:13:57;9.47;85.66
69208;SHT31;70114;47.690;8.898;2023-11-21T15:16:22;9.48;85.65
69208;SHT31;70114;47.690;8.898;2023-11-21T15:18:48;9.47;85.76
69208;SHT31;70114;47.690;8.898;2023-11-21T15:21:14;9.43;85.99
69208;SHT31;70114;47.690;8.898;2023-11-21T15:23:40;9.47;85.89
69208;SHT31;70114;47.690;8.898;2023-11-21T15:26:07;9.37;84.75
69208;SHT31;70114;47.690;8.898;2023-11-21T15:28:34;9.39;84.48
69208;SHT31;70114;47.690;8.898;2023-11-21T15:30:59;9.41;84.02
69208;SHT31;70114;47.690;8.898;2023-11-21T15:33:24;9.29;85.03
69208;SHT31;70114;47.690;8.898;2023-11-21T15:35:52;9.37;84.79
69208;SHT31;70114;47.690;8.898;2023-11-21T15:38:19;9.37;84.76
69208;SHT31;70114;47.690;8.898;2023-11-21T15:40:45;9.40;85.25
69208;SHT31;70114;47.690;8.898;2023-11-21T15:43:11;9.37;85.32
69208;SHT31;70114;47.690;8.898;2023-11-21T15:45:38;9.26;85.49
69208;SHT31;70114;47.690;8.898;2023-11-21T15:48:04;9.34;85.35
69208;SHT31;70114;47.690;8.898;2023-11-21T15:50:30;9.37;85.31
69208;SHT31;70114;47.690;8.898;2023-11-21T15:52:57;9.29;86.06
69208;SHT31;70114;47.690;8.898;2023-11-21T15:55:23;9.33;85.46
69208;SHT31;70114;47.690;8.898;2023-11-21T15:57:49;9.20;85.76